GLD1772 SBPJ-SBSN
Flight info
| Callsign | GLD1772 |
|---|---|
| Flight time | 1h 34m |
| Altitude | 38000 |
| Route | OPNUP UL576 SUDRO UZ9 RONUB UL452 DARBU |
| Aircraft | B738/M-SDE2E3FGHIRWXY/LB1 |
Departure
| Time | 2026-05-08 23:30 |
|---|---|
| Airport | Brigadeiro Lysias Rodrigues Airport (SBPJ) |
Arrival
| Time | 2026-05-09 01:05 |
|---|---|
| Airport | Santarém - Maestro Wilson Fonseca International Airport (SBSN) |
| Time | Latitude | Longitude | Altitude | Speed | Heading |
|---|---|---|---|---|---|
| 2026-05-08 22:34 | -10.29488 | -48.35727 | 757 ft | 0 kts | 211° |
| 2026-05-08 23:13 | -10.29478 | -48.35721 | 752 ft | 2 kts | 221° |
| 2026-05-08 23:13 | -10.29468 | -48.35708 | 753 ft | 2 kts | 265° |
| 2026-05-08 23:13 | -10.29472 | -48.35693 | 754 ft | 2 kts | 303° |
| 2026-05-08 23:13 | -10.29475 | -48.35688 | 755 ft | 0 kts | 305° |
| 2026-05-08 23:14 | -10.29475 | -48.35689 | 755 ft | 0 kts | 305° |
| 2026-05-08 23:15 | -10.29471 | -48.35693 | 754 ft | 1 kts | 306° |
| 2026-05-08 23:15 | -10.29464 | -48.35704 | 754 ft | 2 kts | 307° |
| 2026-05-08 23:15 | -10.29451 | -48.35721 | 753 ft | 3 kts | 309° |
| 2026-05-08 23:15 | -10.29433 | -48.35742 | 757 ft | 4 kts | 311° |
| 2026-05-08 23:16 | -10.29410 | -48.35767 | 756 ft | 5 kts | 314° |
| 2026-05-08 23:16 | -10.29380 | -48.35796 | 751 ft | 6 kts | 317° |
| 2026-05-08 23:16 | -10.29344 | -48.35827 | 753 ft | 7 kts | 322° |
| 2026-05-08 23:16 | -10.29302 | -48.35857 | 749 ft | 8 kts | 326° |
| 2026-05-08 23:17 | -10.29256 | -48.35886 | 752 ft | 8 kts | 330° |
| 2026-05-08 23:17 | -10.29202 | -48.35914 | 749 ft | 9 kts | 336° |
| 2026-05-08 23:17 | -10.29143 | -48.35937 | 750 ft | 9 kts | 341° |
| 2026-05-08 23:17 | -10.29124 | -48.35943 | 749 ft | 0 kts | 343° |
| 2026-05-08 23:20 | -10.29122 | -48.35942 | 749 ft | 0 kts | 359° |
| 2026-05-08 23:20 | -10.29118 | -48.35941 | 749 ft | 1 kts | 13° |
| 2026-05-08 23:21 | -10.29106 | -48.35936 | 749 ft | 3 kts | 24° |
| 2026-05-08 23:21 | -10.29079 | -48.35922 | 747 ft | 6 kts | 28° |
| 2026-05-08 23:21 | -10.29031 | -48.35910 | 747 ft | 8 kts | 341° |
| 2026-05-08 23:21 | -10.28985 | -48.35954 | 744 ft | 10 kts | 319° |
| 2026-05-08 23:22 | -10.28948 | -48.36013 | 743 ft | 10 kts | 302° |
| 2026-05-08 23:22 | -10.28911 | -48.36071 | 743 ft | 10 kts | 303° |
| 2026-05-08 23:22 | -10.28873 | -48.36128 | 743 ft | 9 kts | 305° |
| 2026-05-08 23:22 | -10.28838 | -48.36183 | 743 ft | 9 kts | 302° |
| 2026-05-08 23:23 | -10.28803 | -48.36238 | 741 ft | 10 kts | 304° |
| 2026-05-08 23:23 | -10.28764 | -48.36295 | 740 ft | 10 kts | 303° |
| 2026-05-08 23:23 | -10.28726 | -48.36354 | 739 ft | 10 kts | 303° |
| 2026-05-08 23:23 | -10.28701 | -48.36393 | 738 ft | 10 kts | 304° |
| 2026-05-08 23:24 | -10.28663 | -48.36449 | 737 ft | 10 kts | 304° |
| 2026-05-08 23:24 | -10.28623 | -48.36509 | 735 ft | 11 kts | 304° |
| 2026-05-08 23:24 | -10.28569 | -48.36567 | 733 ft | 12 kts | 316° |
| 2026-05-08 23:24 | -10.28532 | -48.36619 | 731 ft | 2 kts | 258° |
| 2026-05-08 23:25 | -10.28545 | -48.36614 | 732 ft | 2 kts | 141° |
| 2026-05-08 23:25 | -10.28557 | -48.36604 | 731 ft | 2 kts | 132° |
| 2026-05-08 23:25 | -10.28560 | -48.36600 | 732 ft | 0 kts | 128° |
| 2026-05-08 23:26 | -10.28587 | -48.36561 | 734 ft | 26 kts | 123° |
| 2026-05-08 23:26 | -10.28857 | -48.36151 | 741 ft | 112 kts | 124° |
| 2026-05-08 23:27 | -10.29009 | -48.35934 | 745 ft | 0 kts | 125° |
| 2026-05-08 23:29 | -10.29011 | -48.35931 | 743 ft | 3 kts | 125° |
| 2026-05-08 23:29 | -10.29118 | -48.35751 | 748 ft | 67 kts | 119° |
| 2026-05-08 23:30 | -10.29519 | -48.35151 | 768 ft | 136 kts | 124° |
| 2026-05-08 23:30 | -10.30148 | -48.34214 | 1010 ft | 175 kts | 127° |
| 2026-05-08 23:30 | -10.30868 | -48.33192 | 1621 ft | 196 kts | 124° |
| 2026-05-08 23:30 | -10.31693 | -48.31965 | 2002 ft | 221 kts | 123° |
| 2026-05-08 23:31 | -10.32590 | -48.30564 | 2251 ft | 252 kts | 122° |
| 2026-05-08 23:31 | -10.33549 | -48.29063 | 2900 ft | 249 kts | 122° |
| 2026-05-08 23:31 | -10.34481 | -48.27606 | 3766 ft | 247 kts | 119° |
| 2026-05-08 23:31 | -10.34921 | -48.26536 | 4198 ft | 250 kts | 99° |
| 2026-05-08 23:32 | -10.34820 | -48.24782 | 4923 ft | 253 kts | 71° |
| 2026-05-08 23:32 | -10.33893 | -48.23265 | 5654 ft | 257 kts | 44° |
| 2026-05-08 23:32 | -10.32342 | -48.22382 | 6478 ft | 257 kts | 14° |
| 2026-05-08 23:32 | -10.30592 | -48.22326 | 7474 ft | 250 kts | 355° |
| 2026-05-08 23:33 | -10.28867 | -48.22654 | 8096 ft | 256 kts | 349° |
| 2026-05-08 23:33 | -10.27129 | -48.23073 | 8748 ft | 258 kts | 349° |
| 2026-05-08 23:33 | -10.25369 | -48.23507 | 9363 ft | 261 kts | 349° |
| 2026-05-08 23:33 | -10.23603 | -48.23934 | 10064 ft | 262 kts | 349° |
| 2026-05-08 23:34 | -10.21786 | -48.24363 | 10463 ft | 277 kts | 349° |
| 2026-05-08 23:34 | -10.19833 | -48.24815 | 10619 ft | 300 kts | 349° |
| 2026-05-08 23:34 | -10.17715 | -48.25300 | 10784 ft | 322 kts | 349° |
| 2026-05-08 23:34 | -10.15485 | -48.25810 | 10939 ft | 342 kts | 349° |
| 2026-05-08 23:35 | -10.13091 | -48.26354 | 11085 ft | 362 kts | 348° |
| 2026-05-08 23:35 | -10.10584 | -48.26960 | 11264 ft | 378 kts | 343° |
| 2026-05-08 23:35 | -10.08190 | -48.28118 | 11661 ft | 387 kts | 326° |
| 2026-05-08 23:35 | -10.06202 | -48.29967 | 12238 ft | 389 kts | 310° |
| 2026-05-08 23:36 | -10.04474 | -48.32095 | 12846 ft | 391 kts | 310° |
| 2026-05-08 23:36 | -10.02736 | -48.34222 | 13397 ft | 394 kts | 310° |
| 2026-05-08 23:36 | -10.00976 | -48.36364 | 13911 ft | 397 kts | 310° |
| 2026-05-08 23:36 | -9.99196 | -48.38517 | 14377 ft | 400 kts | 310° |
| 2026-05-08 23:37 | -9.97397 | -48.40684 | 14827 ft | 403 kts | 311° |
| 2026-05-08 23:37 | -9.95580 | -48.42866 | 15261 ft | 406 kts | 311° |
| 2026-05-08 23:37 | -9.93747 | -48.45061 | 15702 ft | 409 kts | 311° |
| 2026-05-08 23:37 | -9.91900 | -48.47272 | 16097 ft | 413 kts | 311° |
| 2026-05-08 23:38 | -9.90036 | -48.49500 | 16514 ft | 415 kts | 311° |
| 2026-05-08 23:38 | -9.88185 | -48.51712 | 16926 ft | 418 kts | 311° |
| 2026-05-08 23:38 | -9.86296 | -48.53969 | 17315 ft | 421 kts | 311° |
| 2026-05-08 23:38 | -9.84395 | -48.56240 | 17716 ft | 424 kts | 311° |
| 2026-05-08 23:39 | -9.82487 | -48.58519 | 18093 ft | 427 kts | 311° |
| 2026-05-08 23:39 | -9.80552 | -48.60830 | 18426 ft | 429 kts | 311° |
| 2026-05-08 23:39 | -9.78615 | -48.63143 | 18729 ft | 432 kts | 311° |
| 2026-05-08 23:39 | -9.76658 | -48.65480 | 19028 ft | 435 kts | 311° |
| 2026-05-08 23:40 | -9.74694 | -48.67823 | 19316 ft | 438 kts | 311° |
| 2026-05-08 23:40 | -9.72716 | -48.70184 | 19611 ft | 441 kts | 311° |
| 2026-05-08 23:40 | -9.70721 | -48.72563 | 19905 ft | 443 kts | 311° |
| 2026-05-08 23:40 | -9.68716 | -48.74956 | 20195 ft | 446 kts | 311° |
| 2026-05-08 23:41 | -9.66698 | -48.77362 | 20472 ft | 449 kts | 311° |
| 2026-05-08 23:41 | -9.64673 | -48.79776 | 20742 ft | 451 kts | 311° |
| 2026-05-08 23:41 | -9.62661 | -48.82175 | 21007 ft | 454 kts | 311° |
| 2026-05-08 23:41 | -9.60585 | -48.84649 | 21279 ft | 456 kts | 311° |
| 2026-05-08 23:42 | -9.58554 | -48.87070 | 21540 ft | 459 kts | 311° |
| 2026-05-08 23:42 | -9.56485 | -48.89535 | 21802 ft | 461 kts | 311° |
| 2026-05-08 23:42 | -9.54399 | -48.92019 | 22056 ft | 464 kts | 311° |
| 2026-05-08 23:42 | -9.52302 | -48.94517 | 22304 ft | 466 kts | 311° |
| 2026-05-08 23:43 | -9.50202 | -48.97017 | 22534 ft | 468 kts | 311° |
| 2026-05-08 23:43 | -9.48086 | -48.99536 | 22777 ft | 470 kts | 311° |
| 2026-05-08 23:43 | -9.45960 | -49.02067 | 23012 ft | 472 kts | 311° |
| 2026-05-08 23:43 | -9.43829 | -49.04602 | 23240 ft | 474 kts | 311° |
| 2026-05-08 23:44 | -9.41682 | -49.07156 | 23454 ft | 477 kts | 311° |
| 2026-05-08 23:44 | -9.39531 | -49.09714 | 23649 ft | 478 kts | 311° |
| 2026-05-08 23:44 | -9.37375 | -49.12279 | 23899 ft | 478 kts | 311° |
| 2026-05-08 23:44 | -9.35373 | -49.14659 | 24126 ft | 478 kts | 311° |
| 2026-05-08 23:45 | -9.33340 | -49.17077 | 24333 ft | 478 kts | 311° |
| 2026-05-08 23:45 | -9.31318 | -49.19480 | 24509 ft | 479 kts | 311° |
| 2026-05-08 23:45 | -9.29150 | -49.22056 | 24721 ft | 480 kts | 311° |
| 2026-05-08 23:45 | -9.27077 | -49.24519 | 24912 ft | 480 kts | 311° |
| 2026-05-08 23:46 | -9.24900 | -49.27104 | 25113 ft | 481 kts | 311° |
| 2026-05-08 23:46 | -9.22837 | -49.29554 | 25308 ft | 481 kts | 311° |
| 2026-05-08 23:46 | -9.20778 | -49.31999 | 25496 ft | 482 kts | 311° |
| 2026-05-08 23:46 | -9.18604 | -49.34580 | 25707 ft | 482 kts | 311° |
| 2026-05-08 23:47 | -9.16420 | -49.37171 | 25872 ft | 483 kts | 311° |
| 2026-05-08 23:47 | -9.14273 | -49.39719 | 26038 ft | 484 kts | 311° |
| 2026-05-08 23:47 | -9.12059 | -49.42345 | 26223 ft | 485 kts | 311° |
| 2026-05-08 23:47 | -9.09895 | -49.44912 | 26402 ft | 485 kts | 311° |
| 2026-05-08 23:48 | -9.07701 | -49.47514 | 26578 ft | 486 kts | 311° |
| 2026-05-08 23:48 | -9.05509 | -49.50112 | 26746 ft | 487 kts | 311° |
| 2026-05-08 23:48 | -9.03300 | -49.52730 | 26911 ft | 487 kts | 311° |
| 2026-05-08 23:48 | -9.01099 | -49.55339 | 27082 ft | 488 kts | 311° |
| 2026-05-08 23:49 | -8.98894 | -49.57951 | 27248 ft | 488 kts | 311° |
| 2026-05-08 23:49 | -8.96689 | -49.60564 | 27404 ft | 489 kts | 311° |
| 2026-05-08 23:49 | -8.94478 | -49.63182 | 27554 ft | 489 kts | 311° |
| 2026-05-08 23:49 | -8.92265 | -49.65802 | 27694 ft | 490 kts | 310° |
| 2026-05-08 23:50 | -8.90052 | -49.68422 | 27843 ft | 491 kts | 310° |
| 2026-05-08 23:50 | -8.87832 | -49.71050 | 28031 ft | 490 kts | 310° |
| 2026-05-08 23:50 | -8.85621 | -49.73666 | 28275 ft | 489 kts | 310° |
| 2026-05-08 23:50 | -8.83416 | -49.76275 | 28538 ft | 487 kts | 310° |
| 2026-05-08 23:51 | -8.81223 | -49.78869 | 28801 ft | 485 kts | 310° |
| 2026-05-08 23:51 | -8.79033 | -49.81459 | 29045 ft | 484 kts | 310° |
| 2026-05-08 23:51 | -8.76845 | -49.84047 | 29252 ft | 483 kts | 310° |
| 2026-05-08 23:51 | -8.74663 | -49.86626 | 29503 ft | 482 kts | 310° |
| 2026-05-08 23:52 | -8.72485 | -49.89200 | 29791 ft | 481 kts | 310° |
| 2026-05-08 23:52 | -8.70313 | -49.91767 | 30037 ft | 479 kts | 310° |
| 2026-05-08 23:52 | -8.68179 | -49.94288 | 30215 ft | 479 kts | 310° |
| 2026-05-08 23:52 | -8.66010 | -49.96850 | 30396 ft | 479 kts | 310° |
| 2026-05-08 23:53 | -8.63848 | -49.99404 | 30626 ft | 477 kts | 310° |
| 2026-05-08 23:53 | -8.61698 | -50.01942 | 30898 ft | 475 kts | 310° |
| 2026-05-08 23:53 | -8.59552 | -50.04476 | 31168 ft | 473 kts | 310° |
| 2026-05-08 23:53 | -8.57417 | -50.06996 | 31406 ft | 472 kts | 310° |
| 2026-05-08 23:54 | -8.55287 | -50.09509 | 31638 ft | 470 kts | 310° |
| 2026-05-08 23:54 | -8.53161 | -50.12018 | 31895 ft | 469 kts | 310° |
| 2026-05-08 23:54 | -8.51046 | -50.14513 | 32164 ft | 467 kts | 310° |
| 2026-05-08 23:55 | -8.46835 | -50.19479 | 32673 ft | 464 kts | 310° |
| 2026-05-08 23:55 | -8.44738 | -50.21951 | 32928 ft | 463 kts | 310° |
| 2026-05-08 23:55 | -8.42651 | -50.24412 | 33199 ft | 461 kts | 310° |
| 2026-05-08 23:55 | -8.40564 | -50.26871 | 33475 ft | 459 kts | 310° |
| 2026-05-08 23:56 | -8.38490 | -50.29316 | 33743 ft | 458 kts | 310° |
| 2026-05-08 23:56 | -8.36422 | -50.31751 | 33988 ft | 456 kts | 310° |
| 2026-05-08 23:56 | -8.34358 | -50.34184 | 34201 ft | 455 kts | 310° |
| 2026-05-08 23:56 | -8.32296 | -50.36611 | 34391 ft | 455 kts | 310° |
| 2026-05-08 23:57 | -8.30242 | -50.39031 | 34585 ft | 454 kts | 310° |
| 2026-05-08 23:57 | -8.28186 | -50.41452 | 34801 ft | 453 kts | 310° |
| 2026-05-08 23:57 | -8.26142 | -50.43858 | 35010 ft | 452 kts | 310° |
| 2026-05-08 23:57 | -8.24095 | -50.46266 | 35195 ft | 451 kts | 310° |
| 2026-05-08 23:58 | -8.22052 | -50.48670 | 35380 ft | 451 kts | 309° |
| 2026-05-08 23:58 | -8.20015 | -50.51067 | 35576 ft | 450 kts | 309° |
| 2026-05-08 23:58 | -8.17981 | -50.53460 | 35762 ft | 449 kts | 309° |
| 2026-05-08 23:58 | -8.15979 | -50.55814 | 35921 ft | 449 kts | 309° |
| 2026-05-08 23:59 | -8.13944 | -50.58208 | 36095 ft | 448 kts | 309° |
| 2026-05-08 23:59 | -8.11918 | -50.60590 | 36273 ft | 447 kts | 309° |
| 2026-05-08 23:59 | -8.09887 | -50.62977 | 36450 ft | 447 kts | 309° |
| 2026-05-08 23:59 | -8.07867 | -50.65351 | 36617 ft | 446 kts | 309° |
| 2026-05-09 00:00 | -8.05876 | -50.67690 | 36791 ft | 445 kts | 309° |
| 2026-05-09 00:00 | -8.03830 | -50.70094 | 36979 ft | 444 kts | 309° |
| 2026-05-09 00:00 | -8.01822 | -50.72454 | 37130 ft | 444 kts | 309° |
| 2026-05-09 00:00 | -7.99806 | -50.74821 | 37265 ft | 444 kts | 309° |
| 2026-05-09 00:01 | -7.97802 | -50.77175 | 37409 ft | 443 kts | 309° |
| 2026-05-09 00:01 | -7.95796 | -50.79530 | 37555 ft | 443 kts | 309° |
| 2026-05-09 00:01 | -7.93784 | -50.81892 | 37685 ft | 442 kts | 309° |
| 2026-05-09 00:01 | -7.91784 | -50.84241 | 37801 ft | 443 kts | 309° |
| 2026-05-09 00:02 | -7.89773 | -50.86601 | 37903 ft | 443 kts | 309° |
| 2026-05-09 00:02 | -7.85739 | -50.91333 | 37913 ft | 444 kts | 309° |
| 2026-05-09 00:03 | -7.81714 | -50.96055 | 37918 ft | 443 kts | 309° |
| 2026-05-09 00:03 | -7.77695 | -51.00768 | 37918 ft | 443 kts | 309° |
| 2026-05-09 00:04 | -7.73707 | -51.05441 | 37919 ft | 442 kts | 309° |
| 2026-05-09 00:04 | -7.69695 | -51.10143 | 37923 ft | 442 kts | 309° |
| 2026-05-09 00:05 | -7.65692 | -51.14832 | 37909 ft | 441 kts | 309° |
| 2026-05-09 00:05 | -7.61686 | -51.19524 | 37919 ft | 441 kts | 309° |
| 2026-05-09 00:06 | -7.57686 | -51.24206 | 37921 ft | 441 kts | 309° |
| 2026-05-09 00:06 | -7.53690 | -51.28883 | 37921 ft | 441 kts | 309° |
| 2026-05-09 00:07 | -7.49690 | -51.33563 | 37930 ft | 441 kts | 309° |
| 2026-05-09 00:07 | -7.45658 | -51.38279 | 37916 ft | 442 kts | 309° |
| 2026-05-09 00:08 | -7.41668 | -51.42944 | 37914 ft | 442 kts | 309° |
| 2026-05-09 00:08 | -7.37638 | -51.47655 | 37915 ft | 443 kts | 309° |
| 2026-05-09 00:09 | -7.33610 | -51.52362 | 37914 ft | 443 kts | 309° |
| 2026-05-09 00:09 | -7.29601 | -51.57045 | 37915 ft | 444 kts | 309° |
| 2026-05-09 00:10 | -7.25571 | -51.61752 | 37908 ft | 444 kts | 309° |
| 2026-05-09 00:10 | -7.21530 | -51.66469 | 37909 ft | 445 kts | 309° |
| 2026-05-09 00:11 | -7.17488 | -51.71187 | 37907 ft | 445 kts | 309° |
| 2026-05-09 00:11 | -7.13440 | -51.75910 | 37906 ft | 445 kts | 309° |
| 2026-05-09 00:12 | -7.09397 | -51.80625 | 37909 ft | 446 kts | 309° |
| 2026-05-09 00:12 | -7.05348 | -51.85348 | 37911 ft | 446 kts | 309° |
| 2026-05-09 00:13 | -7.01311 | -51.90053 | 37913 ft | 446 kts | 309° |
| 2026-05-09 00:13 | -6.97260 | -51.94774 | 37912 ft | 446 kts | 309° |
| 2026-05-09 00:14 | -6.93192 | -51.99515 | 37914 ft | 446 kts | 309° |
| 2026-05-09 00:14 | -6.89137 | -52.04237 | 37917 ft | 446 kts | 309° |
| 2026-05-09 00:15 | -6.85079 | -52.08962 | 37914 ft | 446 kts | 309° |
| 2026-05-09 00:15 | -6.81052 | -52.13651 | 37920 ft | 445 kts | 309° |
| 2026-05-09 00:16 | -6.77002 | -52.18364 | 37915 ft | 445 kts | 309° |
| 2026-05-09 00:16 | -6.72951 | -52.23077 | 37920 ft | 445 kts | 309° |
| 2026-05-09 00:17 | -6.69578 | -52.27001 | 37917 ft | 445 kts | 309° |
| 2026-05-09 00:17 | -6.65523 | -52.31716 | 37921 ft | 445 kts | 309° |
| 2026-05-09 00:18 | -6.61417 | -52.36396 | 37912 ft | 447 kts | 315° |
| 2026-05-09 00:18 | -6.56394 | -52.40042 | 37936 ft | 449 kts | 325° |
| 2026-05-09 00:19 | -6.51073 | -52.43430 | 37916 ft | 450 kts | 325° |
| 2026-05-09 00:19 | -6.45833 | -52.46802 | 37919 ft | 450 kts | 324° |
| 2026-05-09 00:20 | -6.40565 | -52.50214 | 37918 ft | 451 kts | 324° |
| 2026-05-09 00:20 | -6.35299 | -52.53633 | 37917 ft | 451 kts | 324° |
| 2026-05-09 00:21 | -6.30026 | -52.57055 | 37924 ft | 451 kts | 324° |
| 2026-05-09 00:21 | -6.24756 | -52.60474 | 37923 ft | 451 kts | 324° |
| 2026-05-09 00:22 | -6.19469 | -52.63902 | 37918 ft | 452 kts | 324° |
| 2026-05-09 00:22 | -6.14212 | -52.67310 | 37918 ft | 452 kts | 324° |
| 2026-05-09 00:23 | -6.08934 | -52.70731 | 37923 ft | 452 kts | 324° |
| 2026-05-09 00:23 | -6.03639 | -52.74162 | 37915 ft | 452 kts | 324° |
| 2026-05-09 00:24 | -5.98351 | -52.77587 | 37926 ft | 452 kts | 324° |
| 2026-05-09 00:24 | -5.93055 | -52.81018 | 37923 ft | 452 kts | 324° |
| 2026-05-09 00:25 | -5.87800 | -52.84420 | 37917 ft | 453 kts | 324° |
| 2026-05-09 00:25 | -5.82503 | -52.87849 | 37924 ft | 453 kts | 324° |
| 2026-05-09 00:26 | -5.77201 | -52.91281 | 37924 ft | 453 kts | 324° |
| 2026-05-09 00:26 | -5.71896 | -52.94713 | 37927 ft | 453 kts | 324° |
| 2026-05-09 00:27 | -5.66598 | -52.98142 | 37915 ft | 453 kts | 324° |
| 2026-05-09 00:27 | -5.61293 | -53.01572 | 37923 ft | 454 kts | 324° |
| 2026-05-09 00:28 | -5.55987 | -53.05003 | 37923 ft | 454 kts | 324° |
| 2026-05-09 00:28 | -5.50682 | -53.08433 | 37922 ft | 454 kts | 324° |
| 2026-05-09 00:29 | -5.45370 | -53.11866 | 37918 ft | 454 kts | 324° |
| 2026-05-09 00:29 | -5.40054 | -53.15302 | 37922 ft | 455 kts | 324° |
| 2026-05-09 00:30 | -5.34736 | -53.18738 | 37919 ft | 455 kts | 324° |
| 2026-05-09 00:30 | -5.29414 | -53.22176 | 37924 ft | 455 kts | 324° |
| 2026-05-09 00:31 | -5.24085 | -53.25617 | 37923 ft | 455 kts | 324° |
| 2026-05-09 00:31 | -5.18756 | -53.29058 | 37921 ft | 455 kts | 324° |
| 2026-05-09 00:32 | -5.13430 | -53.32496 | 37923 ft | 455 kts | 324° |
| 2026-05-09 00:32 | -5.08143 | -53.35909 | 37921 ft | 455 kts | 324° |
| 2026-05-09 00:33 | -5.02825 | -53.39340 | 37924 ft | 454 kts | 324° |
| 2026-05-09 00:33 | -4.97522 | -53.42761 | 37925 ft | 454 kts | 324° |
| 2026-05-09 00:34 | -4.92191 | -53.46200 | 37920 ft | 454 kts | 324° |
| 2026-05-09 00:34 | -4.86903 | -53.49610 | 37920 ft | 454 kts | 325° |
| 2026-05-09 00:35 | -4.81559 | -53.53056 | 37922 ft | 454 kts | 325° |
| 2026-05-09 00:35 | -4.76283 | -53.56457 | 37922 ft | 454 kts | 325° |
| 2026-05-09 00:36 | -4.70974 | -53.59880 | 37928 ft | 454 kts | 325° |
| 2026-05-09 00:36 | -4.65655 | -53.63307 | 37928 ft | 454 kts | 325° |
| 2026-05-09 00:37 | -4.60347 | -53.66727 | 37926 ft | 454 kts | 325° |
| 2026-05-09 00:37 | -4.55025 | -53.70156 | 37926 ft | 454 kts | 325° |
| 2026-05-09 00:38 | -4.49709 | -53.73580 | 37925 ft | 454 kts | 325° |
| 2026-05-09 00:38 | -4.44395 | -53.77002 | 37931 ft | 454 kts | 324° |
| 2026-05-09 00:39 | -4.39091 | -53.80417 | 37925 ft | 454 kts | 324° |
| 2026-05-09 00:39 | -4.33764 | -53.83846 | 37928 ft | 454 kts | 324° |
| 2026-05-09 00:40 | -4.28477 | -53.87249 | 37930 ft | 454 kts | 324° |
| 2026-05-09 00:40 | -4.23155 | -53.90674 | 37929 ft | 454 kts | 324° |
| 2026-05-09 00:41 | -4.15182 | -53.95804 | 37935 ft | 453 kts | 324° |
| 2026-05-09 00:41 | -4.09878 | -53.99216 | 37933 ft | 453 kts | 324° |
| 2026-05-09 00:42 | -4.04580 | -54.02623 | 37933 ft | 452 kts | 324° |
| 2026-05-09 00:42 | -4.01919 | -54.04335 | 37788 ft | 455 kts | 324° |
| 2026-05-09 00:42 | -3.99234 | -54.06063 | 37201 ft | 461 kts | 325° |
| 2026-05-09 00:43 | -3.96582 | -54.07768 | 36607 ft | 458 kts | 325° |
| 2026-05-09 00:43 | -3.93893 | -54.09497 | 35988 ft | 459 kts | 326° |
| 2026-05-09 00:43 | -3.91200 | -54.11228 | 35295 ft | 461 kts | 326° |
| 2026-05-09 00:43 | -3.88491 | -54.12970 | 34570 ft | 464 kts | 326° |
| 2026-05-09 00:44 | -3.85771 | -54.14718 | 33800 ft | 467 kts | 327° |
| 2026-05-09 00:44 | -3.83022 | -54.16485 | 32960 ft | 470 kts | 327° |
| 2026-05-09 00:44 | -3.80265 | -54.18256 | 32173 ft | 473 kts | 327° |
| 2026-05-09 00:44 | -3.77478 | -54.20047 | 31326 ft | 477 kts | 327° |
| 2026-05-09 00:45 | -3.74675 | -54.21848 | 30480 ft | 481 kts | 327° |
| 2026-05-09 00:45 | -3.71845 | -54.23666 | 29514 ft | 486 kts | 327° |
| 2026-05-09 00:45 | -3.68980 | -54.25507 | 28474 ft | 490 kts | 327° |
| 2026-05-09 00:45 | -3.66134 | -54.27336 | 27608 ft | 491 kts | 328° |
| 2026-05-09 00:46 | -3.63265 | -54.29179 | 26882 ft | 488 kts | 328° |
| 2026-05-09 00:46 | -3.60421 | -54.31006 | 26174 ft | 485 kts | 328° |
| 2026-05-09 00:46 | -3.57575 | -54.32834 | 25456 ft | 483 kts | 328° |
| 2026-05-09 00:46 | -3.54758 | -54.34643 | 24747 ft | 481 kts | 328° |
| 2026-05-09 00:47 | -3.51942 | -54.36452 | 24047 ft | 480 kts | 329° |
| 2026-05-09 00:47 | -3.49126 | -54.38260 | 23294 ft | 479 kts | 329° |
| 2026-05-09 00:47 | -3.46322 | -54.40060 | 22499 ft | 476 kts | 329° |
| 2026-05-09 00:47 | -3.43578 | -54.41822 | 21785 ft | 472 kts | 328° |
| 2026-05-09 00:48 | -3.40814 | -54.43596 | 21080 ft | 468 kts | 328° |
| 2026-05-09 00:48 | -3.38115 | -54.45329 | 20378 ft | 464 kts | 328° |
| 2026-05-09 00:48 | -3.35364 | -54.47095 | 19672 ft | 461 kts | 328° |
| 2026-05-09 00:48 | -3.32680 | -54.48817 | 19019 ft | 457 kts | 328° |
| 2026-05-09 00:49 | -3.30046 | -54.50509 | 18874 ft | 440 kts | 328° |
| 2026-05-09 00:49 | -3.27542 | -54.52117 | 18679 ft | 427 kts | 328° |
| 2026-05-09 00:49 | -3.25030 | -54.53729 | 18188 ft | 422 kts | 328° |
| 2026-05-09 00:49 | -3.22592 | -54.55293 | 17513 ft | 421 kts | 328° |
| 2026-05-09 00:50 | -3.20105 | -54.56889 | 16889 ft | 419 kts | 328° |
| 2026-05-09 00:50 | -3.17689 | -54.58439 | 16343 ft | 415 kts | 328° |
| 2026-05-09 00:50 | -3.15402 | -54.59906 | 15838 ft | 412 kts | 328° |
| 2026-05-09 00:50 | -3.12997 | -54.61449 | 15286 ft | 409 kts | 328° |
| 2026-05-09 00:51 | -3.10700 | -54.62923 | 14794 ft | 406 kts | 328° |
| 2026-05-09 00:51 | -3.08444 | -54.64370 | 14290 ft | 404 kts | 328° |
| 2026-05-09 00:51 | -3.06147 | -54.65843 | 13795 ft | 401 kts | 328° |
| 2026-05-09 00:51 | -3.03929 | -54.67266 | 13259 ft | 398 kts | 328° |
| 2026-05-09 00:52 | -3.01760 | -54.68658 | 12773 ft | 395 kts | 328° |
| 2026-05-09 00:52 | -2.99504 | -54.70105 | 12578 ft | 383 kts | 328° |
| 2026-05-09 00:52 | -2.97317 | -54.71509 | 12451 ft | 363 kts | 328° |
| 2026-05-09 00:52 | -2.95243 | -54.72841 | 12165 ft | 348 kts | 328° |
| 2026-05-09 00:53 | -2.93243 | -54.74124 | 11905 ft | 334 kts | 328° |
| 2026-05-09 00:53 | -2.91333 | -54.75349 | 11766 ft | 318 kts | 328° |
| 2026-05-09 00:53 | -2.89500 | -54.76524 | 11444 ft | 309 kts | 329° |
| 2026-05-09 00:53 | -2.87704 | -54.77676 | 11132 ft | 302 kts | 329° |
| 2026-05-09 00:54 | -2.85955 | -54.78797 | 10803 ft | 296 kts | 329° |
| 2026-05-09 00:54 | -2.84229 | -54.79903 | 10384 ft | 294 kts | 329° |
| 2026-05-09 00:54 | -2.82496 | -54.81013 | 9944 ft | 293 kts | 329° |
| 2026-05-09 00:54 | -2.80783 | -54.82111 | 9511 ft | 292 kts | 329° |
| 2026-05-09 00:55 | -2.79083 | -54.83201 | 9098 ft | 289 kts | 329° |
| 2026-05-09 00:55 | -2.77414 | -54.84271 | 8693 ft | 286 kts | 329° |
| 2026-05-09 00:55 | -2.75732 | -54.85349 | 8239 ft | 285 kts | 330° |
| 2026-05-09 00:55 | -2.74071 | -54.86414 | 7810 ft | 283 kts | 330° |
| 2026-05-09 00:56 | -2.72425 | -54.87469 | 7409 ft | 281 kts | 330° |
| 2026-05-09 00:56 | -2.70780 | -54.88524 | 6989 ft | 280 kts | 330° |
| 2026-05-09 00:56 | -2.69143 | -54.89573 | 6585 ft | 278 kts | 331° |
| 2026-05-09 00:56 | -2.67542 | -54.90600 | 6191 ft | 276 kts | 331° |
| 2026-05-09 00:57 | -2.65922 | -54.91638 | 5774 ft | 274 kts | 331° |
| 2026-05-09 00:57 | -2.64319 | -54.92665 | 5421 ft | 275 kts | 331° |
| 2026-05-09 00:57 | -2.62705 | -54.93700 | 5160 ft | 273 kts | 330° |
| 2026-05-09 00:57 | -2.61111 | -54.94722 | 4905 ft | 271 kts | 331° |
| 2026-05-09 00:58 | -2.59528 | -54.95736 | 4649 ft | 269 kts | 330° |
| 2026-05-09 00:58 | -2.57969 | -54.96736 | 4494 ft | 260 kts | 330° |
| 2026-05-09 00:58 | -2.56494 | -54.97684 | 4409 ft | 245 kts | 331° |
| 2026-05-09 00:58 | -2.55025 | -54.98415 | 4269 ft | 227 kts | 354° |
| 2026-05-09 00:59 | -2.53532 | -54.98401 | 4197 ft | 205 kts | 12° |
| 2026-05-09 00:59 | -2.52175 | -54.98158 | 4074 ft | 193 kts | 15° |
| 2026-05-09 00:59 | -2.50865 | -54.97900 | 3836 ft | 188 kts | 15° |
| 2026-05-09 00:59 | -2.49596 | -54.97652 | 3728 ft | 183 kts | 15° |
| 2026-05-09 01:00 | -2.48347 | -54.97411 | 3658 ft | 185 kts | 15° |
| 2026-05-09 01:00 | -2.47074 | -54.97167 | 3584 ft | 185 kts | 15° |
| 2026-05-09 01:00 | -2.45924 | -54.96721 | 3386 ft | 173 kts | 40° |
| 2026-05-09 01:00 | -2.45170 | -54.95848 | 3167 ft | 164 kts | 70° |
| 2026-05-09 01:01 | -2.44894 | -54.94788 | 2983 ft | 161 kts | 75° |
| 2026-05-09 01:01 | -2.44627 | -54.93727 | 2775 ft | 153 kts | 77° |
| 2026-05-09 01:01 | -2.44429 | -54.92707 | 2574 ft | 145 kts | 79° |
| 2026-05-09 01:01 | -2.44263 | -54.91737 | 2402 ft | 139 kts | 79° |
| 2026-05-09 01:02 | -2.44111 | -54.90813 | 2226 ft | 135 kts | 79° |
| 2026-05-09 01:02 | -2.43957 | -54.89868 | 2067 ft | 139 kts | 80° |
| 2026-05-09 01:02 | -2.43854 | -54.89235 | 1914 ft | 139 kts | 79° |
| 2026-05-09 01:02 | -2.43700 | -54.88287 | 1732 ft | 136 kts | 80° |
| 2026-05-09 01:03 | -2.43552 | -54.87360 | 1576 ft | 134 kts | 82° |
| 2026-05-09 01:03 | -2.43401 | -54.86436 | 1389 ft | 136 kts | 82° |
| 2026-05-09 01:03 | -2.43197 | -54.85177 | 1149 ft | 139 kts | 80° |
| 2026-05-09 01:03 | -2.43093 | -54.84537 | 1008 ft | 140 kts | 81° |
| 2026-05-09 01:04 | -2.42935 | -54.83562 | 854 ft | 144 kts | 81° |
| 2026-05-09 01:04 | -2.42771 | -54.82557 | 644 ft | 148 kts | 82° |
| 2026-05-09 01:04 | -2.42607 | -54.81548 | 445 ft | 147 kts | 82° |
| 2026-05-09 01:04 | -2.42446 | -54.80541 | 290 ft | 146 kts | 85° |
| 2026-05-09 01:05 | -2.42288 | -54.79560 | 212 ft | 134 kts | 81° |
| 2026-05-09 01:05 | -2.42176 | -54.78896 | 207 ft | 44 kts | 82° |
| 2026-05-09 01:05 | -2.42169 | -54.78855 | 211 ft | 2 kts | 79° |
| 2026-05-09 01:06 | -2.42165 | -54.78818 | 208 ft | 9 kts | 90° |
| 2026-05-09 01:06 | -2.42204 | -54.78735 | 212 ft | 18 kts | 132° |
| 2026-05-09 01:06 | -2.42253 | -54.78690 | 209 ft | 0 kts | 137° |
| 2026-05-09 01:06 | -2.42260 | -54.78683 | 210 ft | 3 kts | 136° |
| 2026-05-09 01:07 | -2.42289 | -54.78658 | 205 ft | 8 kts | 138° |
| 2026-05-09 01:07 | -2.42335 | -54.78611 | 210 ft | 11 kts | 130° |
| 2026-05-09 01:07 | -2.42328 | -54.78536 | 213 ft | 6 kts | 64° |
| 2026-05-09 01:07 | -2.42299 | -54.78503 | 210 ft | 1 kts | 11° |
| 2026-05-09 01:08 | -2.42297 | -54.78503 | 210 ft | 0 kts | 359° |